Plaza, North Dakota
Current Conditions -  °F | °C
As of 1:55 AM on Thursday 23 Oct 2014 (Local Time) from K08D Reporting Station
Clear Clear  
Wind Chill: 34°   Ceiling: Unl
Heat Index: 41°   Visibility: 10mi
Dew Point: 36°   Wind: 12mph
Humidity: 81%   Direction: 270°W
Pressure: 29.85"   Gusts: NA
Location:  48.03°N, 101.96°W
Report Text: K08D 230655Z AUTO 27010KT 10SM CLR 05/02 A2985 RMK AO2
Loading
Personal Weather Stations






























Interactive Weather Map
Tropical Storm Tracking
New forecast layout! Learn more

10-Day Weather Forecast

Advertisements
Track Severe Weather on mobile